sensor_id;sensor_type;location;lat;lon;timestamp;pressure;altitude;pressure_sealevel;temperature;humidity
34185;BME280;20454;48.100;11.776;2023-02-28T00:01:01;95873.59;;;-2.29;83.08
34185;BME280;20454;48.100;11.776;2023-02-28T00:03:27;95876.09;;;-2.27;83.14
34185;BME280;20454;48.100;11.776;2023-02-28T00:05:52;95882.63;;;-2.28;82.66
34185;BME280;20454;48.100;11.776;2023-02-28T00:08:18;95877.03;;;-2.33;83.12
34185;BME280;20454;48.100;11.776;2023-02-28T00:10:44;95871.84;;;-2.35;82.60
34185;BME280;20454;48.100;11.776;2023-02-28T00:13:09;95876.44;;;-2.35;82.80
34185;BME280;20454;48.100;11.776;2023-02-28T00:15:36;95869.78;;;-2.39;83.13
34185;BME280;20454;48.100;11.776;2023-02-28T00:18:02;95876.09;;;-2.39;82.87
34185;BME280;20454;48.100;11.776;2023-02-28T00:20:28;95876.09;;;-2.39;82.96
34185;BME280;20454;48.100;11.776;2023-02-28T00:22:55;95868.84;;;-2.45;83.32
34185;BME280;20454;48.100;11.776;2023-02-28T00:25:24;95866.13;;;-2.45;83.41
34185;BME280;20454;48.100;11.776;2023-02-28T00:27:50;95861.53;;;-2.44;83.56
34185;BME280;20454;48.100;11.776;2023-02-28T00:30:18;95864.69;;;-2.47;83.61
34185;BME280;20454;48.100;11.776;2023-02-28T00:32:45;95861.75;;;-2.46;83.83
34185;BME280;20454;48.100;11.776;2023-02-28T00:35:11;95863.03;;;-2.48;83.56
34185;BME280;20454;48.100;11.776;2023-02-28T00:37:37;95862.22;;;-2.49;83.90
34185;BME280;20454;48.100;11.776;2023-02-28T00:40:03;95859.72;;;-2.50;84.23
34185;BME280;20454;48.100;11.776;2023-02-28T00:42:33;95859.94;;;-2.52;84.05
34185;BME280;20454;48.100;11.776;2023-02-28T00:44:59;95858.50;;;-2.54;83.72
34185;BME280;20454;48.100;11.776;2023-02-28T00:47:25;95857.94;;;-2.56;83.99
34185;BME280;20454;48.100;11.776;2023-02-28T00:49:51;95860.44;;;-2.55;83.75
34185;BME280;20454;48.100;11.776;2023-02-28T00:52:16;95866.31;;;-2.58;83.69
34185;BME280;20454;48.100;11.776;2023-02-28T00:54:42;95863.81;;;-2.59;83.87
34185;BME280;20454;48.100;11.776;2023-02-28T00:57:07;95863.59;;;-2.58;83.89
34185;BME280;20454;48.100;11.776;2023-02-28T00:59:33;95863.81;;;-2.59;83.99
34185;BME280;20454;48.100;11.776;2023-02-28T01:01:59;95861.94;;;-2.59;84.32
34185;BME280;20454;48.100;11.776;2023-02-28T01:04:24;95859.69;;;-2.62;84.18
34185;BME280;20454;48.100;11.776;2023-02-28T01:06:50;95846.53;;;-2.65;84.30
34185;BME280;20454;48.100;11.776;2023-02-28T01:09:16;95846.31;;;-2.63;84.13
34185;BME280;20454;48.100;11.776;2023-02-28T01:11:41;95839.66;;;-2.67;84.69
34185;BME280;20454;48.100;11.776;2023-02-28T01:14:12;95848.66;;;-2.67;84.52
34185;BME280;20454;48.100;11.776;2023-02-28T01:16:39;95850.31;;;-2.66;84.56
34185;BME280;20454;48.100;11.776;2023-02-28T01:19:04;95845.09;;;-2.67;84.74
34185;BME280;20454;48.100;11.776;2023-02-28T01:21:30;95843.66;;;-2.70;84.97
34185;BME280;20454;48.100;11.776;2023-02-28T01:23:56;95840.94;;;-2.70;84.67
34185;BME280;20454;48.100;11.776;2023-02-28T01:26:23;95846.16;;;-2.68;84.94
34185;BME280;20454;48.100;11.776;2023-02-28T01:28:50;95829.94;;;-2.75;84.64
34185;BME280;20454;48.100;11.776;2023-02-28T01:31:17;95840.94;;;-2.70;85.49
34185;BME280;20454;48.100;11.776;2023-02-28T01:33:43;95833.03;;;-2.71;84.83
34185;BME280;20454;48.100;11.776;2023-02-28T01:36:18;95834.09;;;-2.72;85.30
34185;BME280;20454;48.100;11.776;2023-02-28T01:38:44;95839.53;;;-2.72;85.16
34185;BME280;20454;48.100;11.776;2023-02-28T01:41:20;95826.38;;;-2.75;85.40
34185;BME280;20454;48.100;11.776;2023-02-28T01:46:12;95818.44;;;-2.77;85.70
34185;BME280;20454;48.100;11.776;2023-02-28T01:48:43;95823.66;;;-2.75;85.63
34185;BME280;20454;48.100;11.776;2023-02-28T01:51:18;95818.44;;;-2.77;85.68
34185;BME280;20454;48.100;11.776;2023-02-28T01:53:49;95817.25;;;-2.81;85.40
34185;BME280;20454;48.100;11.776;2023-02-28T01:56:20;95817.97;;;-2.85;84.99
34185;BME280;20454;48.100;11.776;2023-02-28T01:58:49;95812.59;;;-2.92;85.42
34185;BME280;20454;48.100;11.776;2023-02-28T02:01:16;95818.66;;;-2.90;85.27
34185;BME280;20454;48.100;11.776;2023-02-28T02:03:58;95808.94;;;-2.97;85.40
34185;BME280;20454;48.100;11.776;2023-02-28T02:06:38;95817.22;;;-2.92;85.65
34185;BME280;20454;48.100;11.776;2023-02-28T02:09:05;95812.00;;;-2.94;85.54
34185;BME280;20454;48.100;11.776;2023-02-28T02:11:31;95815.81;;;-2.95;85.80
34185;BME280;20454;48.100;11.776;2023-02-28T02:24:53;95816.88;;;-2.96;86.04
34185;BME280;20454;48.100;11.776;2023-02-28T02:30:33;95818.75;;;-2.96;86.51
34185;BME280;20454;48.100;11.776;2023-02-28T02:36:01;95812.50;;;-2.97;86.33
34185;BME280;20454;48.100;11.776;2023-02-28T02:46:16;95800.03;;;-3.04;86.15
34185;BME280;20454;48.100;11.776;2023-02-28T02:48:43;95798.00;;;-3.09;86.52
34185;BME280;20454;48.100;11.776;2023-02-28T02:51:17;95805.09;;;-3.08;86.73
34185;BME280;20454;48.100;11.776;2023-02-28T02:53:49;95802.84;;;-3.11;86.82
34185;BME280;20454;48.100;11.776;2023-02-28T02:56:18;95803.66;;;-3.10;87.12
34185;BME280;20454;48.100;11.776;2023-02-28T02:58:45;95803.66;;;-3.10;87.24
34185;BME280;20454;48.100;11.776;2023-02-28T05:03:00;95838.13;;;-3.52;91.30
34185;BME280;20454;48.100;11.776;2023-02-28T05:05:26;95838.34;;;-3.53;91.45
34185;BME280;20454;48.100;11.776;2023-02-28T05:07:52;95857.91;;;-3.45;91.34
34185;BME280;20454;48.100;11.776;2023-02-28T05:10:19;95867.03;;;-3.39;91.59
34185;BME280;20454;48.100;11.776;2023-02-28T05:12:44;95861.13;;;-3.36;91.86
34185;BME280;20454;48.100;11.776;2023-02-28T05:15:12;95862.19;;;-3.37;92.19
34185;BME280;20454;48.100;11.776;2023-02-28T05:17:39;95854.03;;;-3.37;92.25
34185;BME280;20454;48.100;11.776;2023-02-28T05:20:05;95861.97;;;-3.36;91.98
34185;BME280;20454;48.100;11.776;2023-02-28T05:22:31;95870.66;;;-3.27;92.65
34185;BME280;20454;48.100;11.776;2023-02-28T05:24:57;95859.53;;;-3.26;92.66
34185;BME280;20454;48.100;11.776;2023-02-28T05:27:23;95862.50;;;-3.27;92.49
34185;BME280;20454;48.100;11.776;2023-02-28T05:29:48;95871.78;;;-3.17;92.50
34185;BME280;20454;48.100;11.776;2023-02-28T05:32:14;95870.94;;;-3.17;92.95
34185;BME280;20454;48.100;11.776;2023-02-28T05:34:41;95864.69;;;-3.18;92.86
34185;BME280;20454;48.100;11.776;2023-02-28T05:37:12;95863.72;;;-3.12;93.39
34185;BME280;20454;48.100;11.776;2023-02-28T05:39:38;95875.34;;;-3.05;93.56
34185;BME280;20454;48.100;11.776;2023-02-28T05:42:04;95868.63;;;-3.02;93.51
34185;BME280;20454;48.100;11.776;2023-02-28T07:00:44;95914.19;;;-2.09;90.34
34185;BME280;20454;48.100;11.776;2023-02-28T07:03:11;95931.84;;;-2.00;90.18
34185;BME280;20454;48.100;11.776;2023-02-28T07:05:38;95921.66;;;-2.05;90.23
34185;BME280;20454;48.100;11.776;2023-02-28T07:08:05;95928.53;;;-2.02;90.79
34185;BME280;20454;48.100;11.776;2023-02-28T07:10:32;95932.44;;;-1.98;90.96
34185;BME280;20454;48.100;11.776;2023-02-28T07:12:59;95937.78;;;-1.92;90.77
34185;BME280;20454;48.100;11.776;2023-02-28T07:15:24;95929.47;;;-1.97;90.61
34185;BME280;20454;48.100;11.776;2023-02-28T07:17:50;95944.91;;;-1.91;90.33
34185;BME280;20454;48.100;11.776;2023-02-28T07:20:16;95942.88;;;-1.84;89.04
34185;BME280;20454;48.100;11.776;2023-02-28T07:22:42;95928.78;;;-1.81;88.04
34185;BME280;20454;48.100;11.776;2023-02-28T07:25:08;95940.75;;;-1.82;89.00
34185;BME280;20454;48.100;11.776;2023-02-28T07:27:34;95931.75;;;-1.82;89.18
34185;BME280;20454;48.100;11.776;2023-02-28T07:29:59;95933.28;;;-1.75;88.99
34185;BME280;20454;48.100;11.776;2023-02-28T07:32:27;95936.59;;;-1.73;89.34
34185;BME280;20454;48.100;11.776;2023-02-28T07:34:53;95935.91;;;-1.68;89.29
34185;BME280;20454;48.100;11.776;2023-02-28T07:37:19;95937.59;;;-1.56;87.87
34185;BME280;20454;48.100;11.776;2023-02-28T07:39:45;95939.38;;;-1.61;87.71
34185;BME280;20454;48.100;11.776;2023-02-28T07:42:11;95938.88;;;-1.58;88.44
34185;BME280;20454;48.100;11.776;2023-02-28T07:44:41;95934.25;;;-1.58;87.97
34185;BME280;20454;48.100;11.776;2023-02-28T07:47:08;95933.19;;;-1.57;87.81
34185;BME280;20454;48.100;11.776;2023-02-28T07:49:35;95932.13;;;-1.56;86.99
34185;BME280;20454;48.100;11.776;2023-02-28T07:52:05;95934.00;;;-1.56;86.42
34185;BME280;20454;48.100;11.776;2023-02-28T07:54:32;95940.66;;;-1.52;86.56
34185;BME280;20454;48.100;11.776;2023-02-28T07:56:58;95934.38;;;-1.53;86.92
34185;BME280;20454;48.100;11.776;2023-02-28T07:59:24;95938.41;;;-1.55;87.12
34185;BME280;20454;48.100;11.776;2023-02-28T08:10:16;95946.09;;;-1.41;86.89
34185;BME280;20454;48.100;11.776;2023-02-28T08:12:42;95951.94;;;-1.37;86.45
34185;BME280;20454;48.100;11.776;2023-02-28T08:15:08;95950.63;;;-1.35;85.59
34185;BME280;20454;48.100;11.776;2023-02-28T08:17:34;95948.47;;;-1.33;86.32
34185;BME280;20454;48.100;11.776;2023-02-28T08:19:59;95954.78;;;-1.32;85.53
34185;BME280;20454;48.100;11.776;2023-02-28T08:22:25;95960.59;;;-1.29;84.61
34185;BME280;20454;48.100;11.776;2023-02-28T08:24:50;95956.06;;;-1.35;85.34
34185;BME280;20454;48.100;11.776;2023-02-28T08:27:16;95958.66;;;-1.28;85.93
34185;BME280;20454;48.100;11.776;2023-02-28T08:29:42;95960.47;;;-1.22;85.25
34185;BME280;20454;48.100;11.776;2023-02-28T08:32:08;95962.47;;;-1.18;84.85
34185;BME280;20454;48.100;11.776;2023-02-28T08:34:34;95956.56;;;-1.26;84.26
34185;BME280;20454;48.100;11.776;2023-02-28T08:36:59;95966.41;;;-1.25;84.44
34185;BME280;20454;48.100;11.776;2023-02-28T08:39:25;95966.41;;;-1.25;85.41
34185;BME280;20454;48.100;11.776;2023-02-28T08:41:51;95969.72;;;-1.23;85.83
34185;BME280;20454;48.100;11.776;2023-02-28T08:44:17;95961.88;;;-1.20;86.00
34185;BME280;20454;48.100;11.776;2023-02-28T08:46:42;95969.97;;;-1.13;85.58
34185;BME280;20454;48.100;11.776;2023-02-28T08:49:09;95977.44;;;-1.09;85.14
34185;BME280;20454;48.100;11.776;2023-02-28T08:51:35;95973.13;;;-1.05;85.20
34185;BME280;20454;48.100;11.776;2023-02-28T08:54:01;95971.03;;;-1.03;83.89
34185;BME280;20454;48.100;11.776;2023-02-28T08:56:28;95978.94;;;-1.01;83.99
34185;BME280;20454;48.100;11.776;2023-02-28T08:58:55;95982.28;;;-0.99;83.76
34185;BME280;20454;48.100;11.776;2023-02-28T09:01:23;95981.22;;;-0.98;83.69
34185;BME280;20454;48.100;11.776;2023-02-28T09:03:50;95986.41;;;-0.97;83.99
34185;BME280;20454;48.100;11.776;2023-02-28T09:06:17;95980.13;;;-0.97;84.36
34185;BME280;20454;48.100;11.776;2023-02-28T09:08:43;95984.50;;;-0.85;84.16
34185;BME280;20454;48.100;11.776;2023-02-28T09:11:09;95982.63;;;-0.84;84.36
34185;BME280;20454;48.100;11.776;2023-02-28T09:13:35;95983.44;;;-0.72;83.45
34185;BME280;20454;48.100;11.776;2023-02-28T09:16:02;95990.91;;;-0.68;82.40
34185;BME280;20454;48.100;11.776;2023-02-28T09:18:29;95989.00;;;-0.79;82.28
34185;BME280;20454;48.100;11.776;2023-02-28T09:20:55;96001.13;;;-0.75;82.03
34185;BME280;20454;48.100;11.776;2023-02-28T09:23:21;95998.63;;;-0.76;82.46
34185;BME280;20454;48.100;11.776;2023-02-28T09:25:52;95992.81;;;-0.80;82.01
34185;BME280;20454;48.100;11.776;2023-02-28T09:28:18;96003.75;;;-0.80;81.81
34185;BME280;20454;48.100;11.776;2023-02-28T09:30:45;96001.13;;;-0.75;81.19
34185;BME280;20454;48.100;11.776;2023-02-28T09:33:10;95997.31;;;-0.74;80.31
34185;BME280;20454;48.100;11.776;2023-02-28T09:35:36;96007.66;;;-0.76;81.23
34185;BME280;20454;48.100;11.776;2023-02-28T09:38:03;96014.78;;;-0.75;83.04
34185;BME280;20454;48.100;11.776;2023-02-28T09:40:29;96020.94;;;-0.68;82.59
34185;BME280;20454;48.100;11.776;2023-02-28T09:42:56;96023.19;;;-0.65;81.62
34185;BME280;20454;48.100;11.776;2023-02-28T09:45:32;96013.91;;;-0.64;81.10
34185;BME280;20454;48.100;11.776;2023-02-28T09:47:59;96020.69;;;-0.66;81.93
34185;BME280;20454;48.100;11.776;2023-02-28T09:52:58;96024.22;;;-0.54;83.19
34185;BME280;20454;48.100;11.776;2023-02-28T09:55:29;96026.84;;;-0.48;83.11
34185;BME280;20454;48.100;11.776;2023-02-28T09:57:56;96026.47;;;-0.40;83.04
34185;BME280;20454;48.100;11.776;2023-02-28T10:05:41;96025.47;;;-0.22;81.54
34185;BME280;20454;48.100;11.776;2023-02-28T10:13:12;96022.00;;;0.10;81.44
34185;BME280;20454;48.100;11.776;2023-02-28T10:15:40;96030.38;;;0.20;79.38
34185;BME280;20454;48.100;11.776;2023-02-28T10:18:11;96033.72;;;0.22;76.97
34185;BME280;20454;48.100;11.776;2023-02-28T10:20:39;96031.22;;;0.20;75.70
34185;BME280;20454;48.100;11.776;2023-02-28T10:23:11;96030.38;;;0.20;76.10
34185;BME280;20454;48.100;11.776;2023-02-28T10:25:39;96035.50;;;0.28;77.02
34185;BME280;20454;48.100;11.776;2023-02-28T10:28:11;96029.22;;;0.60;74.73
34185;BME280;20454;48.100;11.776;2023-02-28T10:30:56;96020.00;;;0.99;74.00
34185;BME280;20454;48.100;11.776;2023-02-28T10:33:29;96026.72;;;1.25;72.17
34185;BME280;20454;48.100;11.776;2023-02-28T10:35:55;96024.56;;;1.48;70.80
34185;BME280;20454;48.100;11.776;2023-02-28T10:38:27;96036.09;;;1.67;70.81
34185;BME280;20454;48.100;11.776;2023-02-28T10:41:16;96033.25;;;2.05;69.27
34185;BME280;20454;48.100;11.776;2023-02-28T10:43:42;96021.13;;;2.22;67.11
34185;BME280;20454;48.100;11.776;2023-02-28T10:48:40;96007.19;;;2.55;64.42
34185;BME280;20454;48.100;11.776;2023-02-28T10:51:16;96035.03;;;2.69;65.58
34185;BME280;20454;48.100;11.776;2023-02-28T10:56:16;96036.41;;;3.29;64.33
34185;BME280;20454;48.100;11.776;2023-02-28T11:03:58;96033.75;;;3.44;62.34
34185;BME280;20454;48.100;11.776;2023-02-28T11:06:30;96039.47;;;3.38;60.99
34185;BME280;20454;48.100;11.776;2023-02-28T11:09:06;96039.91;;;3.61;60.90
34185;BME280;20454;48.100;11.776;2023-02-28T11:11:43;96035.47;;;3.55;61.31
34185;BME280;20454;48.100;11.776;2023-02-28T11:14:22;96040.44;;;3.58;61.22
34185;BME280;20454;48.100;11.776;2023-02-28T11:16:49;96030.25;;;3.54;60.42
34185;BME280;20454;48.100;11.776;2023-02-28T11:19:30;96028.31;;;3.49;62.27
34185;BME280;20454;48.100;11.776;2023-02-28T11:22:01;96027.41;;;3.44;61.06
34185;BME280;20454;48.100;11.776;2023-02-28T11:24:41;96032.81;;;3.29;61.69
34185;BME280;20454;48.100;11.776;2023-02-28T11:27:46;96034.16;;;3.26;63.01
34185;BME280;20454;48.100;11.776;2023-02-28T11:30:36;96016.88;;;3.31;63.31
34185;BME280;20454;48.100;11.776;2023-02-28T11:35:46;96021.81;;;3.29;61.61
34185;BME280;20454;48.100;11.776;2023-02-28T11:38:14;96020.44;;;3.26;63.07
34185;BME280;20454;48.100;11.776;2023-02-28T11:41:27;96024.53;;;3.24;61.89
34185;BME280;20454;48.100;11.776;2023-02-28T11:43:41;96018.38;;;3.07;62.13
34185;BME280;20454;48.100;11.776;2023-02-28T11:48:56;96005.00;;;2.84;63.45
34185;BME280;20454;48.100;11.776;2023-02-28T11:51:33;96006.06;;;2.83;63.31
34185;BME280;20454;48.100;11.776;2023-02-28T11:54:14;96012.47;;;2.93;63.52
34185;BME280;20454;48.100;11.776;2023-02-28T11:56:52;96000.53;;;3.09;62.77
34185;BME280;20454;48.100;11.776;2023-02-28T12:02:26;96003.34;;;3.19;62.91
34185;BME280;20454;48.100;11.776;2023-02-28T12:07:29;95980.34;;;3.30;63.96
34185;BME280;20454;48.100;11.776;2023-02-28T12:10:20;95994.50;;;3.59;62.09
34185;BME280;20454;48.100;11.776;2023-02-28T12:18:13;95992.78;;;4.04;61.00
34185;BME280;20454;48.100;11.776;2023-02-28T12:23:25;95987.66;;;4.28;59.41
34185;BME280;20454;48.100;11.776;2023-02-28T12:26:06;95990.63;;;4.11;59.55
34185;BME280;20454;48.100;11.776;2023-02-28T12:28:57;95980.78;;;4.30;59.80
34185;BME280;20454;48.100;11.776;2023-02-28T12:31:27;95978.56;;;4.27;59.41
34185;BME280;20454;48.100;11.776;2023-02-28T12:33:59;95971.72;;;4.45;59.13
34185;BME280;20454;48.100;11.776;2023-02-28T12:36:26;95964.59;;;4.58;57.69
34185;BME280;20454;48.100;11.776;2023-02-28T12:39:00;95970.38;;;4.77;58.99
34185;BME280;20454;48.100;11.776;2023-02-28T12:41:40;95969.28;;;4.68;57.89
34185;BME280;20454;48.100;11.776;2023-02-28T12:44:49;95963.75;;;4.63;57.16
34185;BME280;20454;48.100;11.776;2023-02-28T12:47:15;95964.31;;;4.55;58.94
34185;BME280;20454;48.100;11.776;2023-02-28T12:49:57;95964.59;;;4.68;58.38
34185;BME280;20454;48.100;11.776;2023-02-28T12:52:52;95962.41;;;4.65;57.98
34185;BME280;20454;48.100;11.776;2023-02-28T12:58:27;95959.38;;;4.67;60.14
34185;BME280;20454;48.100;11.776;2023-02-28T13:09:16;95965.44;;;4.89;58.18
34185;BME280;20454;48.100;11.776;2023-02-28T13:19:45;95957.72;;;4.76;59.13
34185;BME280;20454;48.100;11.776;2023-02-28T13:24:55;95951.66;;;4.74;59.23
34185;BME280;20454;48.100;11.776;2023-02-28T13:27:22;95959.09;;;4.78;59.88
34185;BME280;20454;48.100;11.776;2023-02-28T13:29:50;95961.56;;;4.75;58.20
34185;BME280;20454;48.100;11.776;2023-02-28T13:32:28;95961.56;;;4.70;59.03
34185;BME280;20454;48.100;11.776;2023-02-28T13:39:49;95962.13;;;4.97;58.92
34185;BME280;20454;48.100;11.776;2023-02-28T13:47:29;95953.84;;;5.12;56.99
34185;BME280;20454;48.100;11.776;2023-02-28T13:53:11;95949.41;;;5.31;57.35
34185;BME280;20454;48.100;11.776;2023-02-28T13:55:51;95956.81;;;5.50;57.81
34185;BME280;20454;48.100;11.776;2023-02-28T14:04:30;95954.84;;;5.71;55.63
34185;BME280;20454;48.100;11.776;2023-02-28T14:07:03;95947.09;;;5.63;55.42
34185;BME280;20454;48.100;11.776;2023-02-28T14:12:49;95948.22;;;5.72;57.36
34185;BME280;20454;48.100;11.776;2023-02-28T14:17:14;95952.03;;;5.76;54.86
34185;BME280;20454;48.100;11.776;2023-02-28T14:19:44;95962.06;;;5.52;54.92
34185;BME280;20454;48.100;11.776;2023-02-28T14:22:43;95955.75;;;5.36;56.57
34185;BME280;20454;48.100;11.776;2023-02-28T14:25:18;95942.25;;;5.20;56.24
34185;BME280;20454;48.100;11.776;2023-02-28T14:38:27;95948.06;;;4.68;59.32
34185;BME280;20454;48.100;11.776;2023-02-28T14:40:57;95947.78;;;4.60;59.99
34185;BME280;20454;48.100;11.776;2023-02-28T14:43:27;95942.56;;;4.58;58.38
34185;BME280;20454;48.100;11.776;2023-02-28T14:46:01;95948.84;;;4.34;59.15
34185;BME280;20454;48.100;11.776;2023-02-28T14:48:28;95945.25;;;4.24;60.02
34185;BME280;20454;48.100;11.776;2023-02-28T14:50:58;95948.81;;;4.19;58.75
34185;BME280;20454;48.100;11.776;2023-02-28T14:53:27;95959.78;;;4.09;59.50
34185;BME280;20454;48.100;11.776;2023-02-28T14:55:53;95954.78;;;3.96;60.23
34185;BME280;20454;48.100;11.776;2023-02-28T14:58:26;95953.13;;;3.85;60.77
34185;BME280;20454;48.100;11.776;2023-02-28T15:00:54;95950.06;;;3.82;61.38
34185;BME280;20454;48.100;11.776;2023-02-28T15:03:37;95940.94;;;3.71;61.72
34185;BME280;20454;48.100;11.776;2023-02-28T15:06:05;95953.53;;;3.62;62.92
34185;BME280;20454;48.100;11.776;2023-02-28T15:08:32;95944.22;;;3.63;61.39
34185;BME280;20454;48.100;11.776;2023-02-28T15:11:11;95957.09;;;3.53;62.44
34185;BME280;20454;48.100;11.776;2023-02-28T15:13:48;95952.91;;;3.45;63.78
34185;BME280;20454;48.100;11.776;2023-02-28T15:16:36;95948.47;;;3.39;63.29
34185;BME280;20454;48.100;11.776;2023-02-28T15:21:38;95948.16;;;3.31;63.77
34185;BME280;20454;48.100;11.776;2023-02-28T15:24:10;95953.09;;;3.29;63.61
34185;BME280;20454;48.100;11.776;2023-02-28T15:26:41;95951.44;;;3.28;63.86
34185;BME280;20454;48.100;11.776;2023-02-28T15:29:15;95950.00;;;3.20;63.22
34185;BME280;20454;48.100;11.776;2023-02-28T15:32:06;95953.81;;;3.14;63.10
34185;BME280;20454;48.100;11.776;2023-02-28T15:34:40;95962.31;;;3.08;63.80
34185;BME280;20454;48.100;11.776;2023-02-28T15:39:49;95962.84;;;3.05;64.31
34185;BME280;20454;48.100;11.776;2023-02-28T15:42:20;95968.91;;;3.07;64.10
34185;BME280;20454;48.100;11.776;2023-02-28T15:44:46;95965.28;;;3.01;65.02
34185;BME280;20454;48.100;11.776;2023-02-28T15:47:24;95970.50;;;3.03;64.91
34185;BME280;20454;48.100;11.776;2023-02-28T15:49:52;95966.59;;;2.94;64.95
34185;BME280;20454;48.100;11.776;2023-02-28T15:52:24;95968.19;;;2.90;64.83
34185;BME280;20454;48.100;11.776;2023-02-28T15:54:51;95965.69;;;2.83;65.19
34185;BME280;20454;48.100;11.776;2023-02-28T15:57:20;95968.13;;;2.80;65.79
34185;BME280;20454;48.100;11.776;2023-02-28T15:59:53;95969.50;;;2.77;66.18
34185;BME280;20454;48.100;11.776;2023-02-28T16:02:34;95969.75;;;2.76;67.44
34185;BME280;20454;48.100;11.776;2023-02-28T16:07:32;95967.28;;;2.74;65.88
34185;BME280;20454;48.100;11.776;2023-02-28T16:09:59;95973.56;;;2.70;66.42
34185;BME280;20454;48.100;11.776;2023-02-28T16:12:29;95973.75;;;2.63;67.01
34185;BME280;20454;48.100;11.776;2023-02-28T16:14:58;95974.56;;;2.59;67.85
34185;BME280;20454;48.100;11.776;2023-02-28T16:17:26;95969.06;;;2.59;68.53
34185;BME280;20454;48.100;11.776;2023-02-28T16:19:53;95972.06;;;2.57;68.83
34185;BME280;20454;48.100;11.776;2023-02-28T16:22:19;95973.41;;;2.55;69.10
34185;BME280;20454;48.100;11.776;2023-02-28T16:24:45;95977.78;;;2.51;69.51
34185;BME280;20454;48.100;11.776;2023-02-28T16:27:32;95978.88;;;2.50;69.15
34185;BME280;20454;48.100;11.776;2023-02-28T16:29:58;95977.97;;;2.44;69.13
34185;BME280;20454;48.100;11.776;2023-02-28T16:32:24;95978.25;;;2.43;69.77
34185;BME280;20454;48.100;11.776;2023-02-28T16:34:49;95977.94;;;2.39;70.28
34185;BME280;20454;48.100;11.776;2023-02-28T16:37:16;95979.00;;;2.38;70.41
34185;BME280;20454;48.100;11.776;2023-02-28T16:39:43;95979.78;;;2.34;70.48
34185;BME280;20454;48.100;11.776;2023-02-28T16:42:18;95981.09;;;2.26;71.05
34185;BME280;20454;48.100;11.776;2023-02-28T16:44:47;95982.94;;;2.21;71.34
34185;BME280;20454;48.100;11.776;2023-02-28T16:47:13;95980.72;;;2.18;72.02
34185;BME280;20454;48.100;11.776;2023-02-28T16:49:38;95991.16;;;2.16;72.25
34185;BME280;20454;48.100;11.776;2023-02-28T16:52:08;95991.94;;;2.11;72.37
34185;BME280;20454;48.100;11.776;2023-02-28T16:54:33;95988.28;;;2.06;72.64
34185;BME280;20454;48.100;11.776;2023-02-28T16:56:59;95994.28;;;2.03;73.08
34185;BME280;20454;48.100;11.776;2023-02-28T16:59:25;95980.75;;;1.96;73.71
34185;BME280;20454;48.100;11.776;2023-02-28T17:01:52;95987.84;;;1.92;73.78
34185;BME280;20454;48.100;11.776;2023-02-28T17:04:17;95995.78;;;1.89;74.02
34185;BME280;20454;48.100;11.776;2023-02-28T17:06:43;95993.22;;;1.82;74.27
34185;BME280;20454;48.100;11.776;2023-02-28T17:09:16;95990.44;;;1.77;74.38
34185;BME280;20454;48.100;11.776;2023-02-28T17:11:43;95997.19;;;1.70;74.48
34185;BME280;20454;48.100;11.776;2023-02-28T17:14:09;96004.75;;;1.63;74.92
34185;BME280;20454;48.100;11.776;2023-02-28T17:16:36;96001.63;;;1.54;74.94
34185;BME280;20454;48.100;11.776;2023-02-28T17:19:06;96011.69;;;1.49;75.46
34185;BME280;20454;48.100;11.776;2023-02-28T17:21:32;96010.81;;;1.43;76.11
34185;BME280;20454;48.100;11.776;2023-02-28T17:23:58;96015.97;;;1.40;76.77
34185;BME280;20454;48.100;11.776;2023-02-28T17:26:24;96012.59;;;1.33;77.16
34185;BME280;20454;48.100;11.776;2023-02-28T17:28:54;96027.38;;;1.32;77.44
34185;BME280;20454;48.100;11.776;2023-02-28T17:31:21;96030.59;;;1.29;78.40
34185;BME280;20454;48.100;11.776;2023-02-28T17:33:47;96031.13;;;1.26;78.61
34185;BME280;20454;48.100;11.776;2023-02-28T17:36:24;96023.06;;;1.19;79.48
34185;BME280;20454;48.100;11.776;2023-02-28T17:38:52;96034.09;;;1.24;80.08
34185;BME280;20454;48.100;11.776;2023-02-28T17:41:18;96035.75;;;1.25;80.01
34185;BME280;20454;48.100;11.776;2023-02-28T17:43:44;96039.06;;;1.27;80.13
34185;BME280;20454;48.100;11.776;2023-02-28T17:46:21;96032.19;;;1.25;80.30
34185;BME280;20454;48.100;11.776;2023-02-28T17:48:48;96028.63;;;1.24;80.72
34185;BME280;20454;48.100;11.776;2023-02-28T17:51:14;96036.59;;;1.26;80.67
34185;BME280;20454;48.100;11.776;2023-02-28T17:53:40;96033.00;;;1.25;80.59
34185;BME280;20454;48.100;11.776;2023-02-28T17:56:11;96036.06;;;1.29;80.57
34185;BME280;20454;48.100;11.776;2023-02-28T17:58:37;96028.09;;;1.27;80.46
34185;BME280;20454;48.100;11.776;2023-02-28T18:01:03;96024.22;;;1.23;80.53
34185;BME280;20454;48.100;11.776;2023-02-28T18:03:28;96035.84;;;1.30;80.66
34185;BME280;20454;48.100;11.776;2023-02-28T18:05:56;96025.69;;;1.31;81.12
34185;BME280;20454;48.100;11.776;2023-02-28T18:08:22;96035.06;;;1.35;81.41
34185;BME280;20454;48.100;11.776;2023-02-28T18:10:47;96032.56;;;1.33;81.53
34185;BME280;20454;48.100;11.776;2023-02-28T18:13:13;96025.19;;;1.34;81.72
34185;BME280;20454;48.100;11.776;2023-02-28T18:15:39;96036.72;;;1.36;81.48
34185;BME280;20454;48.100;11.776;2023-02-28T18:18:05;96027.38;;;1.32;81.21
34185;BME280;20454;48.100;11.776;2023-02-28T18:20:33;96034.84;;;1.36;81.89
34185;BME280;20454;48.100;11.776;2023-02-28T18:22:59;96031.81;;;1.38;81.86
34185;BME280;20454;48.100;11.776;2023-02-28T18:25:25;96029.59;;;1.35;82.01
34185;BME280;20454;48.100;11.776;2023-02-28T18:27:50;96029.34;;;1.36;82.49
34185;BME280;20454;48.100;11.776;2023-02-28T18:30:28;96033.97;;;1.36;82.50
34185;BME280;20454;48.100;11.776;2023-02-28T18:32:59;96024.09;;;1.35;82.09
34185;BME280;20454;48.100;11.776;2023-02-28T18:35:26;96033.41;;;1.34;82.29
34185;BME280;20454;48.100;11.776;2023-02-28T18:40:30;96033.09;;;1.30;81.72
34185;BME280;20454;48.100;11.776;2023-02-28T18:42:56;96034.22;;;1.34;82.22
34185;BME280;20454;48.100;11.776;2023-02-28T18:45:22;96023.97;;;1.25;82.20
34185;BME280;20454;48.100;11.776;2023-02-28T18:47:47;96037.25;;;1.33;82.15
34185;BME280;20454;48.100;11.776;2023-02-28T18:50:13;96027.59;;;1.30;82.38